Date,TemperatureHighF,TemperatureAvgF,TemperatureLowF,DewpointHighF,DewpointAvgF,DewpointLowF,HumidityHigh,HumidityAvg,HumidityLow,PressureMaxIn,PressureMinIn,WindSpeedMaxMPH,WindSpeedAvgMPH,GustSpeedMaxMPH,PrecipitationSumIn
2013-3-1,55,41,28,40,33,27,99,76,43,30.44,30.32,18,5,18,0.00
2013-3-2,51,38,28,31,27,22,95,64,40,30.55,30.42,18,5,18,0.00
2013-3-3,65,46,25,44,35,25,99,71,44,30.45,30.07,17,4,17,0.00
2013-3-4,81,62,49,65,57,42,99,83,56,30.08,29.81,17,6,17,0.00
2013-3-5,60,52,39,59,40,29,99,67,37,30.51,29.91,30,8,30,0.00
2013-3-6,64,46,28,38,32,27,99,62,30,30.61,30.43,14,3,14,0.00
2013-3-7,66,51,36,45,40,33,99,68,43,30.55,30.38,14,4,14,0.00
2013-3-8,69,56,40,49,44,39,98,68,45,30.49,30.28,17,4,17,0.00
2013-3-9,69,62,54,68,59,46,99,90,65,30.28,29.95,25,8,25,0.00
2013-3-10,65,55,43,64,52,37,99,92,68,30.20,29.83,22,8,22,0.01
2013-3-11,57,44,33,41,36,32,99,75,49,30.26,30.16,25,6,25,0.00
2013-3-12,72,50,29,46,38,29,99,69,30,30.48,30.25,8,2,8,0.00
2013-3-13,72,53,38,45,38,32,98,62,32,30.65,30.48,12,2,12,0.00
2013-3-14,78,56,37,56,46,34,99,71,43,30.60,30.37,13,2,13,0.00
2013-3-15,85,65,47,67,57,46,99,78,50,30.38,30.11,16,3,16,0.00
2013-3-16,83,69,54,67,62,54,99,80,56,30.11,29.94,15,5,15,0.00
2013-3-17,78,68,60,72,66,60,99,95,82,30.01,29.83,13,5,13,0.00
2013-3-18,73,61,50,68,57,48,99,89,57,30.22,29.86,16,3,16,0.01
2013-3-19,68,55,40,49,44,39,99,71,41,30.35,30.18,16,4,16,0.00
2013-3-20,70,56,41,42,38,33,79,53,33,30.50,30.27,17,4,17,0.00
2013-3-21,52,45,41,45,38,28,99,76,43,30.27,29.94,16,5,16,0.14
2013-3-22,46,44,40,46,43,40,99,99,99,30.06,29.93,17,5,17,0.02
2013-3-23,52,47,43,52,47,41,99,99,99,30.10,29.85,13,3,13,0.38
2013-3-24,49,44,37,47,40,32,99,86,65,30.32,29.85,29,9,29,0.00
2013-3-25,53,40,27,34,29,27,99,67,40,30.57,30.31,23,6,23,0.00
2013-3-26,60,41,25,36,30,25,99,70,38,30.67,30.52,14,2,14,0.00
2013-3-27,68,48,28,45,37,28,99,70,38,30.58,30.37,14,3,14,0.00
2013-3-28,74,60,42,64,53,40,99,79,65,30.48,30.34,10,4,10,0.00
2013-3-29,79,67,57,69,64,57,99,90,69,30.40,30.27,14,3,14,0.00
2013-3-30,72,63,57,72,62,57,99,99,99,30.30,30.11,8,1,8,0.48
2013-3-31,63,59,56,62,58,52,99,99,99,30.19,30.03,22,2,22,0.99